Time;durP1;ratioP1;P1;durP2;ratioP2;P2;SDS_P1;SDS_P2;PMS_P1;PMS_P2;Temp;Humidity;BMP_temperature;BMP_pressure;BME280_temperature;BME280_humidity;BME280_pressure;Samples;Min_cycle;Max_cycle;Signal;HPM_P1;HPM_P2
2022/11/10 00:01:59;;;;;;;4.83;3.20;;;;;;;;;;5111499;28;20211;-34
2022/11/10 00:04:26;;;;;;;10.57;3.97;;;;;;;;;;5109025;28;20212;-34
2022/11/10 00:06:53;;;;;;;3.47;2.70;;;;;;;;;;5108769;28;20234;-33
2022/11/10 00:09:20;;;;;;;6.53;2.67;;;;;;;;;;5111418;28;20286;-32
2022/11/10 00:11:47;;;;;;;3.43;2.67;;;;;;;;;;5111739;28;20220;-32
2022/11/10 00:17:01;;;;;;;3.27;2.53;;;;;;;;;;5106649;28;20226;-31
2022/11/10 00:19:29;;;;;;;3.90;3.03;;;;;;;;;;5106393;28;20200;-30
2022/11/10 00:21:56;;;;;;;3.63;2.43;;;;;;;;;;5104095;28;20231;-32
2022/11/10 00:24:23;;;;;;;4.17;2.60;;;;;;;;;;5104489;28;20201;-34
2022/11/10 00:26:51;;;;;;;5.90;2.73;;;;;;;;;;5124497;27;20226;-33
2022/11/10 00:29:19;;;;;;;2.50;1.83;;;;;;;;;;5103255;28;20211;-33
2022/11/10 00:31:47;;;;;;;2.87;1.90;;;;;;;;;;5109029;28;20227;-32
2022/11/10 00:34:14;;;;;;;5.60;2.43;;;;;;;;;;5109690;28;20203;-35
2022/11/10 00:36:42;;;;;;;2.17;2.00;;;;;;;;;;5103725;28;20211;-31
2022/11/10 00:39:09;;;;;;;2.30;2.10;;;;;;;;;;5107841;28;20201;-33
2022/11/10 00:41:36;;;;;;;3.17;2.60;;;;;;;;;;5127148;27;20219;-33
2022/11/10 00:44:03;;;;;;;2.30;2.10;;;;;;;;;;5106777;28;20215;-30
2022/11/10 00:46:32;;;;;;;4.57;2.47;;;;;;;;;;5110551;28;20220;-32
2022/11/10 00:48:59;;;;;;;5.17;3.13;;;;;;;;;;5110902;28;20196;-33
2022/11/10 00:51:26;;;;;;;2.80;2.60;;;;;;;;;;5102343;28;20224;-33
2022/11/10 00:53:54;;;;;;;3.57;2.23;;;;;;;;;;5102690;28;20208;-35
2022/11/10 00:56:22;;;;;;;3.80;2.97;;;;;;;;;;5097262;28;20193;-33
2022/11/10 00:58:49;;;;;;;4.13;2.57;;;;;;;;;;5108996;27;20207;-32
2022/11/10 01:01:17;;;;;;;2.90;2.50;;;;;;;;;;5107672;28;20216;-33
2022/11/10 01:03:46;;;;;;;3.97;2.30;;;;;;;;;;5110771;28;20192;-30
2022/11/10 01:06:13;;;;;;;2.83;2.07;;;;;;;;;;5104564;28;20219;-35
2022/11/10 01:08:41;;;;;;;4.00;2.40;;;;;;;;;;5107040;28;20333;-34
2022/11/10 01:11:11;;;;;;;4.03;2.80;;;;;;;;;;5110792;28;20303;-29
2022/11/10 01:13:38;;;;;;;3.10;2.70;;;;;;;;;;5107577;28;20208;-37
2022/11/10 01:16:06;;;;;;;3.50;2.70;;;;;;;;;;5109672;28;20202;-31
2022/11/10 01:18:33;;;;;;;3.00;2.70;;;;;;;;;;5110225;28;20210;-30
2022/11/10 01:21:02;;;;;;;3.10;2.40;;;;;;;;;;5102716;28;20223;-34
2022/11/10 01:23:29;;;;;;;9.00;2.87;;;;;;;;;;5104543;28;20200;-34
2022/11/10 01:25:57;;;;;;;3.63;2.60;;;;;;;;;;5106587;28;20299;-33
2022/11/10 01:28:25;;;;;;;4.87;2.80;;;;;;;;;;5108690;28;20204;-33
2022/11/10 01:30:57;;;;;;;3.33;3.03;;;;;;;;;;5106698;28;20224;-35
2022/11/10 01:33:24;;;;;;;2.83;2.63;;;;;;;;;;5110954;28;20192;-35
2022/11/10 01:35:51;;;;;;;2.50;2.23;;;;;;;;;;5099036;28;20200;-34
2022/11/10 01:38:19;;;;;;;3.13;2.67;;;;;;;;;;5104470;28;20204;-35
2022/11/10 01:40:47;;;;;;;2.90;2.40;;;;;;;;;;5108062;28;20226;-30
2022/11/10 01:43:14;;;;;;;2.97;2.67;;;;;;;;;;5110181;28;20210;-32
2022/11/10 01:45:46;;;;;;;3.00;2.20;;;;;;;;;;5103758;28;20226;-35
2022/11/10 01:48:16;;;;;;;3.67;2.77;;;;;;;;;;5109644;28;20705;-33
2022/11/10 01:50:44;;;;;;;3.03;2.63;;;;;;;;;;5099218;28;20228;-34
2022/11/10 01:53:17;;;;;;;2.23;2.03;;;;;;;;;;5114073;28;20196;-33
2022/11/10 01:55:45;;;;;;;2.30;2.10;;;;;;;;;;5113080;28;20206;-34
2022/11/10 01:58:15;;;;;;;2.73;2.30;;;;;;;;;;5105679;28;20283;-35
2022/11/10 02:00:42;;;;;;;2.10;1.90;;;;;;;;;;5096561;28;20243;-33
2022/11/10 02:03:12;;;;;;;3.87;2.13;;;;;;;;;;5103526;28;20206;-33
2022/11/10 02:05:39;;;;;;;5.20;2.57;;;;;;;;;;5104652;28;20216;-34
2022/11/10 02:08:07;;;;;;;2.70;2.50;;;;;;;;;;5105022;28;20200;-32
2022/11/10 02:10:36;;;;;;;4.17;2.87;;;;;;;;;;5108957;28;20222;-35
2022/11/10 02:13:06;;;;;;;2.60;2.40;;;;;;;;;;5103684;28;20200;-32
2022/11/10 02:15:33;;;;;;;3.37;2.63;;;;;;;;;;5104551;28;20268;-34
2022/11/10 02:18:00;;;;;;;3.10;2.80;;;;;;;;;;5114285;28;20225;-34
2022/11/10 02:20:27;;;;;;;3.03;2.73;;;;;;;;;;5105218;28;20229;-33
2022/11/10 02:22:55;;;;;;;3.87;3.00;;;;;;;;;;5114304;27;20211;-32
2022/11/10 02:25:23;;;;;;;5.63;2.80;;;;;;;;;;5107076;28;20201;-34
2022/11/10 02:27:50;;;;;;;4.73;2.73;;;;;;;;;;5097518;28;20268;-34
2022/11/10 02:30:18;;;;;;;4.00;2.93;;;;;;;;;;5107443;28;20228;-31
2022/11/10 02:32:45;;;;;;;7.37;3.30;;;;;;;;;;5113890;28;20210;-33
2022/11/10 02:35:12;;;;;;;3.77;2.87;;;;;;;;;;5108378;28;20204;-32
2022/11/10 02:37:39;;;;;;;3.37;2.90;;;;;;;;;;5109777;28;20200;-36
2022/11/10 02:40:09;;;;;;;3.27;2.67;;;;;;;;;;5114132;28;20220;-33
2022/11/10 02:42:36;;;;;;;4.10;2.63;;;;;;;;;;5105034;28;20212;-35
2022/11/10 02:45:03;;;;;;;2.50;2.30;;;;;;;;;;5079023;28;20213;-34
2022/11/10 02:47:30;;;;;;;5.17;2.60;;;;;;;;;;5088861;28;20228;-33
2022/11/10 02:49:58;;;;;;;3.43;2.50;;;;;;;;;;5086439;28;20213;-33
2022/11/10 02:52:25;;;;;;;3.30;2.50;;;;;;;;;;5078480;28;20219;-32
2022/11/10 02:54:52;;;;;;;3.43;2.93;;;;;;;;;;5091236;28;20204;-32
2022/11/10 02:57:20;;;;;;;4.23;2.40;;;;;;;;;;5078845;28;20227;-33
2022/11/10 02:59:47;;;;;;;2.07;1.97;;;;;;;;;;5085953;28;20209;-34
2022/11/10 03:02:15;;;;;;;8.00;2.90;;;;;;;;;;5080491;28;20215;-31
2022/11/10 03:04:42;;;;;;;3.00;2.80;;;;;;;;;;5083423;28;20204;-35
2022/11/10 03:07:09;;;;;;;3.33;2.70;;;;;;;;;;5076263;28;20221;-32
2022/11/10 03:09:36;;;;;;;3.30;3.00;;;;;;;;;;5089240;28;20207;-32
2022/11/10 03:12:03;;;;;;;3.07;2.77;;;;;;;;;;5088741;28;20686;-29
2022/11/10 03:14:32;;;;;;;3.63;3.27;;;;;;;;;;5072914;28;20194;-32
2022/11/10 03:16:59;;;;;;;4.13;2.47;;;;;;;;;;5081081;28;20189;-32
2022/11/10 03:19:26;;;;;;;2.23;2.03;;;;;;;;;;5071847;28;20315;-30
2022/11/10 03:21:53;;;;;;;2.40;2.20;;;;;;;;;;5076580;28;20316;-31
2022/11/10 03:24:20;;;;;;;2.20;2.00;;;;;;;;;;5088210;28;20287;-34
2022/11/10 03:26:47;;;;;;;4.57;2.47;;;;;;;;;;5105496;28;20220;-31
2022/11/10 03:29:14;;;;;;;2.73;2.53;;;;;;;;;;5098068;28;20217;-35
2022/11/10 03:31:52;;;;;;;3.20;2.30;;;;;;;;;;5076326;28;20231;-31
2022/11/10 03:34:19;;;;;;;13.37;2.70;;;;;;;;;;5083941;28;20200;-33
2022/11/10 03:36:46;;;;;;;12.13;2.77;;;;;;;;;;5089737;28;20204;-33
2022/11/10 03:39:13;;;;;;;4.87;2.47;;;;;;;;;;5083736;28;20296;-32
2022/11/10 03:41:40;;;;;;;8.43;2.50;;;;;;;;;;5083450;28;20233;-30
2022/11/10 03:44:07;;;;;;;2.50;1.80;;;;;;;;;;5099898;28;20212;-32
2022/11/10 03:46:35;;;;;;;3.40;2.00;;;;;;;;;;5104884;28;20231;-32
2022/11/10 03:49:03;;;;;;;3.87;2.07;;;;;;;;;;5115186;28;20199;-33
2022/11/10 03:51:30;;;;;;;3.37;2.30;;;;;;;;;;5102709;28;20230;-29
2022/11/10 03:53:57;;;;;;;2.47;2.03;;;;;;;;;;5105649;28;20207;-34
2022/11/10 03:56:24;;;;;;;2.40;2.17;;;;;;;;;;5095474;28;20203;-32
2022/11/10 03:58:52;;;;;;;2.20;2.00;;;;;;;;;;5094979;28;20291;-33
2022/11/10 04:01:19;;;;;;;4.10;2.10;;;;;;;;;;5099485;28;20227;-34
2022/11/10 04:03:46;;;;;;;4.80;2.03;;;;;;;;;;5106603;28;20207;-33
2022/11/10 04:08:59;;;;;;;2.40;1.80;;;;;;;;;;5101650;28;20203;-30
2022/11/10 04:17:08;;;;;;;1.60;1.50;;;;;;;;;;5089474;28;20252;-31
2022/11/10 04:19:35;;;;;;;3.77;1.93;;;;;;;;;;5101014;28;20231;-32
2022/11/10 04:22:04;;;;;;;6.90;2.03;;;;;;;;;;5110817;28;20224;-32
2022/11/10 04:24:31;;;;;;;2.50;1.90;;;;;;;;;;5105379;28;20200;-33
2022/11/10 04:26:58;;;;;;;2.87;2.10;;;;;;;;;;5112855;28;20215;-33
2022/11/10 04:29:25;;;;;;;3.07;1.60;;;;;;;;;;5106450;28;20211;-33
2022/11/10 04:31:52;;;;;;;7.20;2.53;;;;;;;;;;5109353;28;20223;-33
2022/11/10 04:34:19;;;;;;;6.17;1.90;;;;;;;;;;5111936;28;20287;-31
2022/11/10 04:36:46;;;;;;;18.70;2.10;;;;;;;;;;5101903;28;20210;-32
2022/11/10 04:39:15;;;;;;;14.37;2.27;;;;;;;;;;5106790;28;20207;-34
2022/11/10 04:41:42;;;;;;;12.70;2.30;;;;;;;;;;5114401;28;20219;-33
2022/11/10 04:44:09;;;;;;;3.60;1.93;;;;;;;;;;5186053;22;20505;-31
2022/11/10 04:46:38;;;;;;;8.83;2.30;;;;;;;;;;5074304;28;20225;-33
2022/11/10 04:49:05;;;;;;;2.70;1.90;;;;;;;;;;5085686;28;20202;-32
2022/11/10 04:51:33;;;;;;;1.97;1.87;;;;;;;;;;5073550;28;20255;-32
2022/11/10 04:54:00;;;;;;;12.13;1.90;;;;;;;;;;5072127;28;20251;-32
2022/11/10 04:56:29;;;;;;;6.93;1.93;;;;;;;;;;5080394;28;20704;-30
2022/11/10 04:58:56;;;;;;;13.03;2.23;;;;;;;;;;5059936;28;20198;-35
2022/11/10 05:01:24;;;;;;;3.80;1.80;;;;;;;;;;5066415;28;20218;-33
2022/11/10 05:03:52;;;;;;;8.80;3.30;;;;;;;;;;5088724;28;20204;-29
2022/11/10 05:06:19;;;;;;;1.90;1.60;;;;;;;;;;5062654;28;20275;-32
2022/11/10 05:08:47;;;;;;;1.97;1.70;;;;;;;;;;5082001;28;20197;-32
2022/11/10 05:11:14;;;;;;;2.13;2.00;;;;;;;;;;5090355;28;20228;-32
2022/11/10 05:13:44;;;;;;;2.20;2.00;;;;;;;;;;5061684;28;20210;-34
2022/11/10 05:16:11;;;;;;;2.23;2.03;;;;;;;;;;5066712;28;20205;-34
2022/11/10 05:18:38;;;;;;;2.37;1.90;;;;;;;;;;5069696;28;20201;-36
2022/11/10 05:21:05;;;;;;;2.23;2.03;;;;;;;;;;5071081;28;20220;-34
2022/11/10 05:23:39;;;;;;;15.90;3.80;;;;;;;;;;5077746;28;20211;-34
2022/11/10 05:26:07;;;;;;;4.70;2.17;;;;;;;;;;5066907;28;20225;-32
2022/11/10 05:28:34;;;;;;;2.53;2.33;;;;;;;;;;5058750;28;20214;-32
2022/11/10 05:31:02;;;;;;;6.07;2.10;;;;;;;;;;5074915;28;20250;-32
2022/11/10 05:33:30;;;;;;;5.70;2.03;;;;;;;;;;5073744;28;20269;-31
2022/11/10 05:35:57;;;;;;;2.03;1.93;;;;;;;;;;5069781;28;20205;-36
2022/11/10 05:38:24;;;;;;;12.23;2.07;;;;;;;;;;5075284;28;20284;-33
2022/11/10 05:40:51;;;;;;;3.03;1.97;;;;;;;;;;5074898;28;20235;-34
2022/11/10 05:43:18;;;;;;;17.23;2.53;;;;;;;;;;5064068;28;20526;-33
2022/11/10 05:45:46;;;;;;;8.80;2.43;;;;;;;;;;5078602;28;20213;-33
2022/11/10 05:48:14;;;;;;;11.20;2.13;;;;;;;;;;5070507;28;20326;-33
2022/11/10 05:50:42;;;;;;;9.13;2.30;;;;;;;;;;5070365;28;20231;-31
2022/11/10 05:53:09;;;;;;;5.53;1.60;;;;;;;;;;5077599;28;20192;-32
2022/11/10 05:55:36;;;;;;;17.33;2.30;;;;;;;;;;5072413;28;20205;-33
2022/11/10 05:58:03;;;;;;;10.17;1.97;;;;;;;;;;5075251;28;20201;-33
2022/11/10 06:00:32;;;;;;;3.33;1.77;;;;;;;;;;5067745;28;20230;-33
2022/11/10 06:03:00;;;;;;;2.40;1.80;;;;;;;;;;5064870;28;20215;-33
2022/11/10 06:05:29;;;;;;;2.03;1.80;;;;;;;;;;5067418;28;20217;-35
2022/11/10 06:07:56;;;;;;;3.33;2.30;;;;;;;;;;5071431;28;20213;-34
2022/11/10 06:10:24;;;;;;;6.13;2.37;;;;;;;;;;5083134;28;20225;-32
2022/11/10 06:12:51;;;;;;;2.60;2.40;;;;;;;;;;5072667;28;20200;-30
2022/11/10 06:15:18;;;;;;;4.77;2.47;;;;;;;;;;5069744;28;20205;-30
2022/11/10 06:17:46;;;;;;;7.27;2.63;;;;;;;;;;5079577;28;20207;-31
2022/11/10 06:20:13;;;;;;;7.67;3.20;;;;;;;;;;5062420;28;20220;-34
2022/11/10 06:22:42;;;;;;;12.87;3.63;;;;;;;;;;5048790;28;20209;-33
2022/11/10 06:25:10;;;;;;;10.80;3.50;;;;;;;;;;5076115;28;20196;-36
2022/11/10 06:27:37;;;;;;;8.93;3.20;;;;;;;;;;5080112;28;20217;-31
2022/11/10 06:30:04;;;;;;;4.53;3.87;;;;;;;;;;5065397;28;20333;-33
2022/11/10 06:32:31;;;;;;;6.13;3.27;;;;;;;;;;5085769;28;20277;-31
2022/11/10 06:34:58;;;;;;;3.07;2.77;;;;;;;;;;5065391;28;20206;-34
2022/11/10 06:37:25;;;;;;;3.50;2.93;;;;;;;;;;5077830;28;20201;-32
2022/11/10 06:39:54;;;;;;;11.40;3.60;;;;;;;;;;5064996;28;20209;-32
2022/11/10 06:42:21;;;;;;;7.67;3.60;;;;;;;;;;5079965;28;20210;-33
2022/11/10 06:44:48;;;;;;;5.83;3.07;;;;;;;;;;5089290;28;20216;-33
2022/11/10 06:47:16;;;;;;;6.37;3.40;;;;;;;;;;5080775;28;20230;-30
2022/11/10 06:49:43;;;;;;;8.93;4.13;;;;;;;;;;5060757;28;20202;-34
2022/11/10 06:52:10;;;;;;;3.50;3.20;;;;;;;;;;5063112;28;20212;-31
2022/11/10 06:54:37;;;;;;;6.10;3.37;;;;;;;;;;5079803;28;20201;-33
2022/11/10 06:57:05;;;;;;;6.70;4.07;;;;;;;;;;5051962;28;20194;-31
2022/11/10 06:59:33;;;;;;;7.30;3.20;;;;;;;;;;5063987;28;20206;-30
2022/11/10 07:02:00;;;;;;;5.13;3.47;;;;;;;;;;5087153;28;20216;-34
2022/11/10 07:04:27;;;;;;;9.00;4.67;;;;;;;;;;5091752;28;20270;-29
2022/11/10 07:06:54;;;;;;;7.47;4.10;;;;;;;;;;5076808;28;20270;-30
2022/11/10 07:09:21;;;;;;;6.07;4.77;;;;;;;;;;5082974;28;20197;-32
2022/11/10 07:11:48;;;;;;;15.03;4.90;;;;;;;;;;5095457;28;20221;-32
2022/11/10 07:14:17;;;;;;;4.97;4.47;;;;;;;;;;5066135;28;20211;-35
2022/11/10 07:16:45;;;;;;;4.63;3.90;;;;;;;;;;5081490;28;20200;-32
2022/11/10 07:19:12;;;;;;;6.17;3.90;;;;;;;;;;5092919;28;20205;-33
2022/11/10 07:21:39;;;;;;;11.57;3.73;;;;;;;;;;5069947;28;20317;-33
2022/11/10 07:24:06;;;;;;;23.07;3.80;;;;;;;;;;5069450;28;20287;-30
2022/11/10 07:26:33;;;;;;;10.37;3.43;;;;;;;;;;5086210;28;20204;-31
2022/11/10 07:29:01;;;;;;;23.67;4.50;;;;;;;;;;5080361;28;20225;-32
2022/11/10 07:31:29;;;;;;;4.93;3.97;;;;;;;;;;5082099;28;20220;-32
2022/11/10 07:33:56;;;;;;;21.27;3.57;;;;;;;;;;5095283;28;20288;-32
2022/11/10 07:36:27;;;;;;;3.97;3.67;;;;;;;;;;5074310;28;20200;-34
2022/11/10 07:38:54;;;;;;;30.53;3.40;;;;;;;;;;5093191;28;20192;-35
2022/11/10 07:41:21;;;;;;;35.73;3.60;;;;;;;;;;5094616;28;20731;-33
2022/11/10 07:43:49;;;;;;;10.40;3.33;;;;;;;;;;5066360;28;20224;-32
2022/11/10 07:46:16;;;;;;;7.47;2.87;;;;;;;;;;5082584;28;20287;-34
2022/11/10 07:48:44;;;;;;;12.10;3.33;;;;;;;;;;5074969;28;20224;-30
2022/11/10 07:51:11;;;;;;;6.07;3.17;;;;;;;;;;5072170;28;20231;-32
2022/11/10 07:53:38;;;;;;;3.77;2.80;;;;;;;;;;5070573;28;20201;-30
2022/11/10 07:56:06;;;;;;;3.93;3.47;;;;;;;;;;5081258;28;20224;-33
2022/11/10 07:58:34;;;;;;;2.90;2.60;;;;;;;;;;5094230;28;20201;-31
2022/11/10 08:01:01;;;;;;;2.70;2.50;;;;;;;;;;5069100;28;20228;-32
2022/11/10 08:03:28;;;;;;;3.00;2.67;;;;;;;;;;5074173;28;20208;-32
2022/11/10 08:05:57;;;;;;;3.50;3.20;;;;;;;;;;5072749;28;20324;-31
2022/11/10 08:08:24;;;;;;;4.30;2.83;;;;;;;;;;5075534;28;20217;-32
2022/11/10 08:10:51;;;;;;;2.97;2.67;;;;;;;;;;5073922;28;20544;-34
2022/11/10 08:13:18;;;;;;;3.00;2.70;;;;;;;;;;5073192;28;20214;-32
2022/11/10 08:15:46;;;;;;;2.83;2.53;;;;;;;;;;5061893;28;20212;-30
2022/11/10 08:18:16;;;;;;;2.83;2.63;;;;;;;;;;5071800;28;20200;-33
2022/11/10 08:20:43;;;;;;;2.60;2.40;;;;;;;;;;5072581;28;20232;-30
2022/11/10 08:23:12;;;;;;;2.83;2.57;;;;;;;;;;5081974;28;20205;-31
2022/11/10 08:25:39;;;;;;;2.83;2.47;;;;;;;;;;5093657;28;20273;-31
2022/11/10 08:28:07;;;;;;;2.27;2.07;;;;;;;;;;5089244;28;20319;-32
2022/11/10 08:30:35;;;;;;;4.00;2.50;;;;;;;;;;5071087;28;20234;-31
2022/11/10 08:33:03;;;;;;;2.70;2.50;;;;;;;;;;5073063;28;20201;-34
2022/11/10 08:35:31;;;;;;;2.47;2.27;;;;;;;;;;5066679;28;20206;-31
2022/11/10 08:37:58;;;;;;;3.47;2.13;;;;;;;;;;5077516;28;20228;-32
2022/11/10 08:40:27;;;;;;;2.07;1.83;;;;;;;;;;5088489;28;20227;-33
2022/11/10 08:42:59;;;;;;;3.03;2.73;;;;;;;;;;5079473;28;20228;-32
2022/11/10 08:45:26;;;;;;;3.73;2.93;;;;;;;;;;5069200;28;20193;-31
2022/11/10 08:47:57;;;;;;;2.97;2.77;;;;;;;;;;5071725;28;20231;-31
2022/11/10 08:50:24;;;;;;;4.90;2.77;;;;;;;;;;5071803;28;20216;-29
2022/11/10 08:52:52;;;;;;;3.97;2.77;;;;;;;;;;5068022;28;20212;-33
2022/11/10 08:55:19;;;;;;;2.77;2.57;;;;;;;;;;5074803;28;20207;-34
2022/11/10 08:57:48;;;;;;;2.97;2.60;;;;;;;;;;5063898;28;20212;-33
2022/11/10 09:00:16;;;;;;;3.80;2.37;;;;;;;;;;5064989;28;20228;-33
2022/11/10 09:02:56;;;;;;;3.10;2.90;;;;;;;;;;5066938;28;20306;-32
2022/11/10 09:05:24;;;;;;;2.93;2.60;;;;;;;;;;5063319;28;20331;-30
2022/11/10 09:07:51;;;;;;;3.57;2.53;;;;;;;;;;5081389;28;20311;-32
2022/11/10 09:10:18;;;;;;;2.80;2.60;;;;;;;;;;5064415;28;20256;-33
2022/11/10 09:12:46;;;;;;;3.50;3.20;;;;;;;;;;5065984;28;20519;-34
2022/11/10 09:15:15;;;;;;;6.53;3.37;;;;;;;;;;5066911;28;20237;-33
2022/11/10 09:17:54;;;;;;;4.90;3.73;;;;;;;;;;5070196;28;20232;-33
2022/11/10 09:20:22;;;;;;;4.63;3.00;;;;;;;;;;5056865;28;20252;-32
2022/11/10 09:22:49;;;;;;;4.77;2.80;;;;;;;;;;5069197;28;20205;-33
2022/11/10 09:25:27;;;;;;;6.23;3.77;;;;;;;;;;5066959;28;20206;-34
2022/11/10 09:27:54;;;;;;;5.77;4.00;;;;;;;;;;5060226;28;20224;-32
2022/11/10 09:30:24;;;;;;;6.83;4.30;;;;;;;;;;5052691;28;20308;-32
2022/11/10 09:32:54;;;;;;;3.50;3.20;;;;;;;;;;5080923;28;20203;-30
2022/11/10 09:35:21;;;;;;;5.07;3.73;;;;;;;;;;5065307;28;20202;-31
2022/11/10 09:37:48;;;;;;;5.27;3.50;;;;;;;;;;5069100;28;20209;-34
2022/11/10 09:40:18;;;;;;;10.03;3.67;;;;;;;;;;5068484;28;20224;-33
2022/11/10 09:42:47;;;;;;;3.77;3.47;;;;;;;;;;5063653;28;20259;-32
2022/11/10 09:45:18;;;;;;;3.77;3.37;;;;;;;;;;5068286;28;20284;-34
2022/11/10 09:47:49;;;;;;;3.43;3.07;;;;;;;;;;5064248;28;20301;-30
2022/11/10 09:50:23;;;;;;;4.73;3.40;;;;;;;;;;5063178;28;20225;-29
2022/11/10 09:52:51;;;;;;;3.87;3.47;;;;;;;;;;5065250;28;20205;-35
2022/11/10 09:55:26;;;;;;;4.60;3.23;;;;;;;;;;5077597;28;20201;-32
2022/11/10 09:57:53;;;;;;;5.97;4.20;;;;;;;;;;5057117;28;20204;-33
2022/11/10 10:00:21;;;;;;;6.80;4.20;;;;;;;;;;5053752;28;20316;-30
2022/11/10 10:02:53;;;;;;;4.47;3.50;;;;;;;;;;5057954;28;20198;-34
2022/11/10 10:05:33;;;;;;;4.23;3.70;;;;;;;;;;5065223;28;20287;-32
2022/11/10 10:08:01;;;;;;;4.30;3.87;;;;;;;;;;5069604;28;20224;-33
2022/11/10 10:10:33;;;;;;;4.50;3.50;;;;;;;;;;5055506;28;20587;-30
2022/11/10 10:13:11;;;;;;;6.60;3.67;;;;;;;;;;5054346;28;20209;-35
2022/11/10 10:15:43;;;;;;;5.37;3.37;;;;;;;;;;5074167;28;20291;-31
2022/11/10 10:18:19;;;;;;;4.40;3.63;;;;;;;;;;5056841;28;20228;-30
2022/11/10 10:20:55;;;;;;;5.10;3.33;;;;;;;;;;5059169;28;20221;-31
2022/11/10 10:23:26;;;;;;;4.07;2.40;;;;;;;;;;5067216;28;20205;-30
2022/11/10 10:25:56;;;;;;;4.70;2.40;;;;;;;;;;5066083;28;20197;-33
2022/11/10 10:28:26;;;;;;;4.80;2.20;;;;;;;;;;5058098;28;20221;-32
2022/11/10 10:30:55;;;;;;;2.47;1.80;;;;;;;;;;5056466;28;20230;-34
2022/11/10 10:33:24;;;;;;;2.47;1.50;;;;;;;;;;5064991;28;20201;-30
2022/11/10 10:35:54;;;;;;;5.07;2.23;;;;;;;;;;5066090;28;20288;-32
2022/11/10 10:38:23;;;;;;;4.67;1.97;;;;;;;;;;5065261;28;20231;-33
2022/11/10 10:40:52;;;;;;;7.50;1.70;;;;;;;;;;5064000;28;20224;-33
2022/11/10 10:43:24;;;;;;;3.60;1.57;;;;;;;;;;5067004;28;20217;-33
2022/11/10 10:46:12;;;;;;;4.63;1.67;;;;;;;;;;5061318;28;20202;-30
2022/11/10 10:48:40;;;;;;;2.43;1.33;;;;;;;;;;5055851;28;20312;-31
2022/11/10 10:51:07;;;;;;;6.50;1.63;;;;;;;;;;5066290;28;20303;-32
2022/11/10 10:53:45;;;;;;;4.77;1.30;;;;;;;;;;5070193;28;20211;-32
2022/11/10 10:56:17;;;;;;;3.70;1.30;;;;;;;;;;5065126;28;20185;-30
2022/11/10 10:58:51;;;;;;;2.50;1.20;;;;;;;;;;5058442;28;20601;-31
2022/11/10 11:01:21;;;;;;;2.87;1.30;;;;;;;;;;5077033;28;20228;-31
2022/11/10 11:03:56;;;;;;;6.10;1.47;;;;;;;;;;5067208;28;20296;-29
2022/11/10 11:06:25;;;;;;;1.13;1.00;;;;;;;;;;5055526;28;20201;-30
2022/11/10 11:08:57;;;;;;;2.97;1.30;;;;;;;;;;5080507;28;20213;-32
2022/11/10 11:11:26;;;;;;;2.10;1.53;;;;;;;;;;5063569;28;20225;-36
2022/11/10 11:13:53;;;;;;;2.33;1.30;;;;;;;;;;5062160;28;20210;-30
2022/11/10 11:16:20;;;;;;;3.07;1.60;;;;;;;;;;5072908;28;20273;-34
2022/11/10 11:18:48;;;;;;;3.50;1.27;;;;;;;;;;5066964;28;20200;-33
2022/11/10 11:21:25;;;;;;;1.50;0.90;;;;;;;;;;5063988;28;20217;-33
2022/11/10 11:24:01;;;;;;;2.30;1.10;;;;;;;;;;5072060;28;20208;-33
2022/11/10 11:26:33;;;;;;;6.20;1.20;;;;;;;;;;5073705;28;20205;-34
2022/11/10 11:29:05;;;;;;;3.83;1.07;;;;;;;;;;5066978;28;20260;-37
2022/11/10 11:31:37;;;;;;;3.87;0.80;;;;;;;;;;5061597;28;20253;-34
2022/11/10 11:34:06;;;;;;;3.03;0.90;;;;;;;;;;5074749;28;20211;-33
2022/11/10 11:36:38;;;;;;;1.90;1.13;;;;;;;;;;5072979;28;20205;-33
2022/11/10 11:39:11;;;;;;;1.97;0.80;;;;;;;;;;5072061;28;20203;-33
2022/11/10 11:41:43;;;;;;;1.77;1.30;;;;;;;;;;5054395;28;20249;-33
2022/11/10 11:44:20;;;;;;;3.67;0.90;;;;;;;;;;5053450;28;20272;-29
2022/11/10 11:46:51;;;;;;;1.10;0.80;;;;;;;;;;5078644;28;20215;-33
2022/11/10 11:49:35;;;;;;;3.63;0.87;;;;;;;;;;5062234;28;20855;-30
2022/11/10 11:52:08;;;;;;;1.77;0.87;;;;;;;;;;5068371;28;20227;-32
2022/11/10 11:54:43;;;;;;;3.10;1.23;;;;;;;;;;5062187;28;20205;-31
2022/11/10 11:57:17;;;;;;;2.20;0.70;;;;;;;;;;5065754;28;20284;-34
2022/11/10 12:00:02;;;;;;;2.40;0.83;;;;;;;;;;5059000;28;20195;-33
2022/11/10 12:02:38;;;;;;;2.37;0.70;;;;;;;;;;5064593;28;20206;-31
2022/11/10 12:05:12;;;;;;;4.37;1.10;;;;;;;;;;5059465;28;20201;-31
2022/11/10 12:07:47;;;;;;;0.67;0.53;;;;;;;;;;5064960;28;20326;-32
2022/11/10 12:10:21;;;;;;;4.40;0.97;;;;;;;;;;5062790;28;20542;-33
2022/11/10 12:13:12;;;;;;;2.07;0.63;;;;;;;;;;5077634;28;20189;-33
2022/11/10 12:15:43;;;;;;;4.70;0.90;;;;;;;;;;5052449;28;20205;-33
2022/11/10 12:18:16;;;;;;;3.40;1.00;;;;;;;;;;5071900;28;20210;-35
2022/11/10 12:20:50;;;;;;;1.57;0.70;;;;;;;;;;5059936;28;20312;-29
2022/11/10 12:23:23;;;;;;;1.10;0.70;;;;;;;;;;5073271;28;20201;-32
2022/11/10 12:25:54;;;;;;;3.17;0.93;;;;;;;;;;5061706;28;20200;-33
2022/11/10 12:28:23;;;;;;;2.27;0.57;;;;;;;;;;5055353;28;20202;-33
2022/11/10 12:30:51;;;;;;;2.23;0.87;;;;;;;;;;5066265;28;20316;-30
2022/11/10 12:33:24;;;;;;;2.63;0.70;;;;;;;;;;5075562;28;20232;-31
2022/11/10 12:35:58;;;;;;;1.23;0.57;;;;;;;;;;5057731;28;20217;-32
2022/11/10 12:38:31;;;;;;;1.80;0.67;;;;;;;;;;5063317;28;21284;-35
2022/11/10 12:41:02;;;;;;;2.37;0.50;;;;;;;;;;5060605;28;20235;-31
2022/11/10 12:43:32;;;;;;;3.80;0.90;;;;;;;;;;5059701;28;20301;-30
2022/11/10 12:46:02;;;;;;;2.40;0.43;;;;;;;;;;5066830;28;20296;-34
2022/11/10 12:48:34;;;;;;;1.10;0.50;;;;;;;;;;5065205;28;20235;-32
2022/11/10 12:51:05;;;;;;;0.70;0.50;;;;;;;;;;5064258;28;20217;-33
2022/11/10 12:53:36;;;;;;;1.00;0.73;;;;;;;;;;5061306;28;20297;-33
2022/11/10 12:56:06;;;;;;;3.73;0.50;;;;;;;;;;5062311;28;20201;-31
2022/11/10 12:58:33;;;;;;;1.27;0.70;;;;;;;;;;5057755;28;20206;-34
2022/11/10 13:01:01;;;;;;;1.73;0.70;;;;;;;;;;5070246;28;20316;-31
2022/11/10 13:03:30;;;;;;;4.13;0.67;;;;;;;;;;5083304;28;20283;-34
2022/11/10 13:05:59;;;;;;;2.90;0.70;;;;;;;;;;5064166;28;20288;-33
2022/11/10 13:08:35;;;;;;;2.00;0.60;;;;;;;;;;5054591;28;20202;-34
2022/11/10 13:11:04;;;;;;;1.20;0.60;;;;;;;;;;5059286;28;20230;-33
2022/11/10 13:13:40;;;;;;;8.40;1.90;;;;;;;;;;5056348;28;20198;-33
2022/11/10 13:16:08;;;;;;;2.97;0.50;;;;;;;;;;5065087;28;20212;-30
2022/11/10 13:18:56;;;;;;;1.77;0.93;;;;;;;;;;5075604;28;20220;-35
2022/11/10 13:21:41;;;;;;;0.60;0.53;;;;;;;;;;5074874;28;20231;-31
2022/11/10 13:24:23;;;;;;;1.83;0.93;;;;;;;;;;5065216;28;20208;-31
2022/11/10 13:26:52;;;;;;;2.83;0.80;;;;;;;;;;5084485;28;20204;-29
2022/11/10 13:29:31;;;;;;;1.80;0.80;;;;;;;;;;5069169;28;20217;-29
2022/11/10 13:31:58;;;;;;;2.83;0.70;;;;;;;;;;5064637;28;20232;-31
2022/11/10 13:34:33;;;;;;;1.87;0.73;;;;;;;;;;5059642;28;20288;-32
2022/11/10 13:37:00;;;;;;;1.10;0.60;;;;;;;;;;5064755;28;20204;-28
2022/11/10 13:39:31;;;;;;;2.73;0.83;;;;;;;;;;5073976;28;20201;-29
2022/11/10 13:42:02;;;;;;;1.37;0.53;;;;;;;;;;5073078;28;20221;-30
2022/11/10 13:44:31;;;;;;;4.17;0.67;;;;;;;;;;5064909;28;20212;-33
2022/11/10 13:47:09;;;;;;;3.00;0.90;;;;;;;;;;5071197;28;20201;-29
2022/11/10 13:49:46;;;;;;;3.90;0.87;;;;;;;;;;5055166;28;20231;-32
2022/11/10 13:52:15;;;;;;;3.20;0.90;;;;;;;;;;5064337;28;20197;-29
2022/11/10 13:54:49;;;;;;;2.57;0.70;;;;;;;;;;5071596;28;20202;-30
2022/11/10 13:57:23;;;;;;;2.17;0.50;;;;;;;;;;5058448;28;20271;-30
2022/11/10 13:59:52;;;;;;;0.80;0.80;;;;;;;;;;5057640;28;20285;-31
2022/11/10 14:02:35;;;;;;;0.53;0.53;;;;;;;;;;5058847;28;20201;-35
2022/11/10 14:05:02;;;;;;;2.13;0.70;;;;;;;;;;5049355;28;20223;-32
2022/11/10 14:07:31;;;;;;;0.93;0.40;;;;;;;;;;5072869;28;20200;-33
2022/11/10 14:10:04;;;;;;;1.50;0.43;;;;;;;;;;5061973;28;20440;-30
2022/11/10 14:12:34;;;;;;;2.83;0.70;;;;;;;;;;5063861;28;20501;-33
2022/11/10 14:15:03;;;;;;;0.50;0.40;;;;;;;;;;5067751;28;20207;-32
2022/11/10 14:17:33;;;;;;;1.40;0.63;;;;;;;;;;5063769;28;20293;-33
2022/11/10 14:20:00;;;;;;;1.70;0.77;;;;;;;;;;5065245;28;20228;-29
2022/11/10 14:22:29;;;;;;;1.77;0.67;;;;;;;;;;5068553;28;20206;-32
2022/11/10 14:25:03;;;;;;;1.40;0.67;;;;;;;;;;5058185;28;20208;-31
2022/11/10 14:27:32;;;;;;;1.60;0.70;;;;;;;;;;5070144;28;20209;-33
2022/11/10 14:30:07;;;;;;;1.03;0.57;;;;;;;;;;5065609;28;20312;-33
2022/11/10 14:32:34;;;;;;;0.73;0.40;;;;;;;;;;5063464;28;20206;-31
2022/11/10 14:35:02;;;;;;;2.17;0.53;;;;;;;;;;5063958;28;20207;-29
2022/11/10 14:37:30;;;;;;;0.60;0.40;;;;;;;;;;5071862;28;20201;-32
2022/11/10 14:39:59;;;;;;;1.40;0.50;;;;;;;;;;5083442;28;20201;-31
2022/11/10 14:42:30;;;;;;;0.97;0.60;;;;;;;;;;5052367;28;20205;-32
2022/11/10 14:45:12;;;;;;;2.13;0.50;;;;;;;;;;5056902;28;20213;-30
2022/11/10 14:47:39;;;;;;;1.53;0.60;;;;;;;;;;5052172;28;20202;-32
2022/11/10 14:50:07;;;;;;;1.83;0.60;;;;;;;;;;5058554;28;20247;-30
2022/11/10 14:52:38;;;;;;;0.33;0.30;;;;;;;;;;5066791;28;20212;-31
2022/11/10 14:55:09;;;;;;;1.20;0.50;;;;;;;;;;5063875;28;20232;-29
2022/11/10 14:57:38;;;;;;;1.60;0.70;;;;;;;;;;5073645;28;20276;-31
2022/11/10 15:00:07;;;;;;;2.60;0.83;;;;;;;;;;5057107;28;20218;-33
2022/11/10 15:02:34;;;;;;;1.03;0.50;;;;;;;;;;5062536;28;20205;-32
2022/11/10 15:05:02;;;;;;;1.90;0.60;;;;;;;;;;5059153;28;20296;-31
2022/11/10 15:07:30;;;;;;;1.83;0.50;;;;;;;;;;5059143;28;20206;-33